createdAt,value
2023-02-08T00:01:09.146Z,13.30
2023-02-08T00:03:37.564Z,13.20
2023-02-08T00:06:06.038Z,13.40
2023-02-08T00:08:36.874Z,14.00
2023-02-08T00:11:05.992Z,12.90
2023-02-08T00:13:34.195Z,14.10
2023-02-08T00:16:02.406Z,14.70
2023-02-08T00:18:31.349Z,13.90
2023-02-08T00:20:59.872Z,13.80
2023-02-08T00:23:27.837Z,14.30
2023-02-08T00:25:55.722Z,14.40
2023-02-08T00:28:23.969Z,17.70
2023-02-08T00:30:53.640Z,16.40
2023-02-08T00:33:22.092Z,16.70
2023-02-08T00:35:50.155Z,16.30
2023-02-08T00:38:21.240Z,15.80
2023-02-08T00:40:50.250Z,15.80
2023-02-08T00:43:18.874Z,15.60
2023-02-08T00:45:47.149Z,14.90
2023-02-08T00:48:15.219Z,12.40
2023-02-08T00:50:45.281Z,14.10
2023-02-08T00:53:13.314Z,12.90
2023-02-08T00:55:42.579Z,13.20
2023-02-08T00:58:11.634Z,14.70
2023-02-08T01:00:40.414Z,14.80
2023-02-08T01:03:08.767Z,14.00
2023-02-08T01:05:42.038Z,14.90
2023-02-08T01:08:10.303Z,14.00
2023-02-08T01:10:38.709Z,14.60
2023-02-08T01:13:06.992Z,15.60
2023-02-08T01:15:35.280Z,16.00
2023-02-08T01:18:03.752Z,16.20
2023-02-08T01:20:34.171Z,18.10
2023-02-08T01:23:03.083Z,17.30
2023-02-08T01:25:33.213Z,19.30
2023-02-08T01:28:01.362Z,16.60
2023-02-08T01:30:29.744Z,18.70
2023-02-08T01:32:57.734Z,17.40
2023-02-08T01:35:29.153Z,15.40
2023-02-08T01:37:59.621Z,14.40
2023-02-08T01:40:27.863Z,15.20
2023-02-08T01:42:56.119Z,16.50
2023-02-08T01:45:26.436Z,16.60
2023-02-08T01:48:12.409Z,15.30
2023-02-08T01:50:48.961Z,16.30
2023-02-08T01:53:17.087Z,16.00
2023-02-08T01:55:49.092Z,14.60
2023-02-08T01:58:18.048Z,14.50
2023-02-08T02:00:46.780Z,14.80
2023-02-08T02:03:15.031Z,15.60
2023-02-08T02:05:50.314Z,16.10
2023-02-08T02:08:18.744Z,17.40
2023-02-08T02:10:49.589Z,18.90
2023-02-08T02:13:20.703Z,18.20
2023-02-08T02:15:49.087Z,18.40
2023-02-08T02:18:23.372Z,18.80
2023-02-08T02:21:13.507Z,16.10
2023-02-08T02:24:20.485Z,16.50
2023-02-08T02:27:06.993Z,17.40
2023-02-08T02:29:50.428Z,17.30
2023-02-08T02:32:24.572Z,17.50
2023-02-08T02:35:01.754Z,16.90
2023-02-08T02:37:29.878Z,17.30
2023-02-08T02:40:10.449Z,16.20
2023-02-08T02:43:26.139Z,14.30
2023-02-08T02:46:05.136Z,14.80
2023-02-08T02:48:59.484Z,14.60
2023-02-08T02:51:33.436Z,14.90
2023-02-08T02:54:14.748Z,16.70
2023-02-08T02:56:46.417Z,17.10
2023-02-08T02:59:16.003Z,17.20
2023-02-08T03:01:45.233Z,16.10
2023-02-08T03:04:14.977Z,16.40
2023-02-08T03:07:04.083Z,14.50
2023-02-08T03:09:35.432Z,14.30
2023-02-08T03:12:15.385Z,14.90
2023-02-08T03:15:22.336Z,14.50
2023-02-08T03:18:00.941Z,17.10
2023-02-08T03:20:40.570Z,17.00
2023-02-08T03:23:19.696Z,16.60
2023-02-08T03:25:51.357Z,17.30
2023-02-08T03:28:25.756Z,16.70
2023-02-08T03:31:01.924Z,17.20
2023-02-08T03:33:37.822Z,20.60
2023-02-08T03:36:09.098Z,19.70
2023-02-08T03:38:40.779Z,18.40
2023-02-08T03:41:12.194Z,20.00
2023-02-08T03:43:47.039Z,19.80
2023-02-08T03:46:19.131Z,17.80
2023-02-08T03:48:49.743Z,17.90
2023-02-08T03:51:18.018Z,18.00
2023-02-08T03:53:46.059Z,16.60
2023-02-08T03:56:21.792Z,16.70
2023-02-08T03:58:52.455Z,17.40
2023-02-08T04:01:24.699Z,18.10
2023-02-08T04:03:54.074Z,17.20
2023-02-08T04:06:22.014Z,17.00
2023-02-08T04:08:50.720Z,17.70
2023-02-08T04:11:20.000Z,16.40
2023-02-08T04:13:48.440Z,16.20
2023-02-08T04:16:16.455Z,15.50
2023-02-08T04:18:44.465Z,15.80
2023-02-08T04:21:12.684Z,15.90
2023-02-08T04:23:41.365Z,15.80
2023-02-08T04:26:09.739Z,16.30
2023-02-08T04:28:38.457Z,17.00
2023-02-08T04:31:06.809Z,16.50
2023-02-08T04:33:36.832Z,16.00
2023-02-08T04:36:05.594Z,15.20
2023-02-08T04:38:34.209Z,14.40
2023-02-08T04:41:02.527Z,17.10
2023-02-08T04:43:30.497Z,16.70
2023-02-08T04:45:58.568Z,19.50
2023-02-08T04:48:26.588Z,18.20
2023-02-08T04:50:58.145Z,20.00
2023-02-08T04:53:26.199Z,18.70
2023-02-08T04:55:54.286Z,17.30
2023-02-08T04:58:22.671Z,17.60
2023-02-08T05:00:50.829Z,18.20
2023-02-08T05:03:18.917Z,19.20
2023-02-08T05:05:47.120Z,16.90
2023-02-08T05:08:15.352Z,19.50
2023-02-08T05:10:46.524Z,20.60
2023-02-08T05:13:14.876Z,19.30
2023-02-08T05:15:43.817Z,19.10
2023-02-08T05:18:13.339Z,18.20
2023-02-08T05:20:41.548Z,17.70
2023-02-08T05:23:09.853Z,17.80
2023-02-08T05:25:39.431Z,19.10
2023-02-08T05:28:07.644Z,18.70
2023-02-08T05:30:36.595Z,20.40
2023-02-08T05:33:04.495Z,20.10
2023-02-08T05:35:32.657Z,19.30
2023-02-08T05:38:01.124Z,20.10
2023-02-08T05:40:29.652Z,17.70
2023-02-08T05:42:57.664Z,18.50
2023-02-08T05:45:25.712Z,18.60
2023-02-08T05:47:53.977Z,20.50
2023-02-08T05:50:22.296Z,21.90
2023-02-08T05:52:52.004Z,22.30
2023-02-08T05:55:19.983Z,21.20
2023-02-08T05:57:47.935Z,22.80
2023-02-08T06:00:17.186Z,20.70
2023-02-08T06:02:45.229Z,19.40
2023-02-08T06:05:13.680Z,19.40
2023-02-08T06:07:42.072Z,19.20
2023-02-08T06:10:11.411Z,20.90
2023-02-08T06:12:40.491Z,20.50
2023-02-08T06:15:09.940Z,21.60
2023-02-08T06:17:38.894Z,22.00
2023-02-08T06:20:07.651Z,22.90
2023-02-08T06:22:35.628Z,20.60
2023-02-08T06:25:03.863Z,19.30
2023-02-08T06:27:32.316Z,20.10
2023-02-08T06:30:00.343Z,19.90
2023-02-08T06:32:28.780Z,20.20
2023-02-08T06:34:57.112Z,20.40
2023-02-08T06:37:25.101Z,18.50
2023-02-08T06:39:53.157Z,18.90
2023-02-08T06:42:21.335Z,19.60
2023-02-08T06:44:55.176Z,19.20
2023-02-08T06:50:16.649Z,19.10
2023-02-08T06:52:44.896Z,19.30
2023-02-08T06:55:12.800Z,18.70
2023-02-08T06:57:42.454Z,18.70
2023-02-08T07:00:12.118Z,19.70
2023-02-08T07:02:40.339Z,19.80
2023-02-08T07:05:08.513Z,19.40
2023-02-08T07:07:37.014Z,19.50
2023-02-08T07:10:05.230Z,18.50
2023-02-08T07:12:36.816Z,20.80
2023-02-08T07:15:04.840Z,20.90
2023-02-08T07:17:34.094Z,22.50
2023-02-08T07:20:01.979Z,22.20
2023-02-08T07:22:30.198Z,22.40
2023-02-08T07:24:59.456Z,22.30
2023-02-08T07:27:27.276Z,23.60
2023-02-08T07:29:55.425Z,24.20
2023-02-08T07:32:23.334Z,23.60
2023-02-08T07:34:51.290Z,23.30
2023-02-08T07:37:19.158Z,24.10
2023-02-08T07:39:47.209Z,24.90
2023-02-08T07:42:15.175Z,23.10
2023-02-08T07:44:51.890Z,24.60
2023-02-08T07:47:19.820Z,24.10
2023-02-08T07:49:47.862Z,24.80
2023-02-08T07:52:16.169Z,25.20
2023-02-08T07:54:44.240Z,22.20
2023-02-08T07:57:12.154Z,24.90
2023-02-08T07:59:40.220Z,23.60
2023-02-08T08:02:08.899Z,23.20
2023-02-08T08:04:37.533Z,23.50
2023-02-08T08:07:06.285Z,23.90
2023-02-08T08:09:35.029Z,21.30
2023-02-08T08:12:03.270Z,23.00
2023-02-08T08:14:31.532Z,21.40
2023-02-08T08:16:59.437Z,22.40
2023-02-08T08:19:28.780Z,23.70
2023-02-08T08:21:57.066Z,23.50
2023-02-08T08:24:25.153Z,22.80
2023-02-08T08:26:53.940Z,23.30
2023-02-08T08:29:21.901Z,24.20
2023-02-08T08:31:49.841Z,25.60
2023-02-08T08:34:17.805Z,25.20
2023-02-08T08:36:46.116Z,24.60
2023-02-08T08:39:13.977Z,23.10
2023-02-08T08:41:41.930Z,23.90
2023-02-08T08:44:09.928Z,24.00
2023-02-08T08:46:38.213Z,23.80
2023-02-08T08:49:06.549Z,22.60
2023-02-08T08:51:35.610Z,24.80
2023-02-08T08:54:04.796Z,23.80
2023-02-08T08:56:32.872Z,25.80
2023-02-08T08:59:01.301Z,23.80
2023-02-08T09:01:29.556Z,22.30
2023-02-08T09:03:57.504Z,23.50
2023-02-08T09:06:25.657Z,22.60
2023-02-08T09:08:53.752Z,22.90
2023-02-08T09:11:21.670Z,20.30
2023-02-08T09:13:52.999Z,19.30
2023-02-08T09:16:24.868Z,20.80
2023-02-08T09:18:52.996Z,23.20
2023-02-08T09:21:22.568Z,21.70
2023-02-08T09:23:50.627Z,21.20
2023-02-08T09:26:19.469Z,21.30
2023-02-08T09:28:47.470Z,22.50
2023-02-08T09:31:19.632Z,20.00
2023-02-08T09:33:48.813Z,22.50
2023-02-08T09:36:17.176Z,23.10
2023-02-08T09:38:45.374Z,22.40
2023-02-08T09:41:38.751Z,21.70
2023-02-08T09:44:28.625Z,22.30
2023-02-08T09:47:03.633Z,18.60
2023-02-08T09:49:34.517Z,20.20
2023-02-08T09:52:04.491Z,19.40
2023-02-08T09:54:38.307Z,19.50
2023-02-08T09:57:13.777Z,19.30
2023-02-08T09:59:47.444Z,19.10
2023-02-08T10:02:32.576Z,19.00
2023-02-08T10:05:03.938Z,20.40
2023-02-08T10:07:33.091Z,21.30
2023-02-08T10:10:12.128Z,21.90
2023-02-08T10:12:48.001Z,19.70
2023-02-08T10:15:36.679Z,19.30
2023-02-08T10:18:26.396Z,20.60
2023-02-08T10:21:31.525Z,19.40
2023-02-08T10:24:11.898Z,19.70
2023-02-08T10:26:53.329Z,21.00
2023-02-08T10:29:31.704Z,20.80
2023-02-08T10:32:22.697Z,28.50
2023-02-08T10:35:03.351Z,33.60
2023-02-08T10:37:36.028Z,37.30
2023-02-08T10:40:44.154Z,30.60
2023-02-08T10:43:35.621Z,25.60
2023-02-08T10:46:26.623Z,22.20
2023-02-08T10:49:07.663Z,19.50
2023-02-08T10:51:36.381Z,18.50
2023-02-08T10:54:04.830Z,16.90
2023-02-08T10:56:52.988Z,17.20
2023-02-08T10:59:26.904Z,19.10
2023-02-08T11:01:54.976Z,20.70
2023-02-08T11:04:22.869Z,19.30
2023-02-08T11:06:51.923Z,19.50
2023-02-08T11:09:23.922Z,20.00
2023-02-08T11:11:56.432Z,18.80
2023-02-08T11:14:46.277Z,19.50
2023-02-08T11:17:27.730Z,19.40
2023-02-08T11:19:56.111Z,20.60
2023-02-08T11:22:26.824Z,21.60
2023-02-08T11:24:57.763Z,21.40
2023-02-08T11:27:28.686Z,21.90
2023-02-08T11:30:15.845Z,22.80
2023-02-08T11:32:48.672Z,23.00
2023-02-08T11:35:26.009Z,20.80
2023-02-08T11:37:55.477Z,21.40
2023-02-08T11:40:29.790Z,20.30
2023-02-08T11:42:57.877Z,20.40
2023-02-08T11:45:31.214Z,19.80
2023-02-08T11:48:01.706Z,20.90
2023-02-08T11:50:34.936Z,20.10
2023-02-08T11:55:35.257Z,18.40
2023-02-08T11:58:04.754Z,18.10
2023-02-08T12:00:36.451Z,19.10
2023-02-08T12:03:15.085Z,19.30
2023-02-08T12:05:54.248Z,18.60
2023-02-08T12:09:00.680Z,17.10
2023-02-08T12:11:49.131Z,16.50
2023-02-08T12:14:42.375Z,15.40
2023-02-08T12:17:55.677Z,15.60
2023-02-08T12:20:45.449Z,16.40
2023-02-08T12:23:46.592Z,15.50
2023-02-08T12:26:25.895Z,14.10
2023-02-08T12:29:06.871Z,14.00
2023-02-08T12:31:42.884Z,14.10
2023-02-08T12:34:22.750Z,13.90
2023-02-08T12:37:22.088Z,14.80
2023-02-08T12:40:18.687Z,13.00
2023-02-08T12:43:15.432Z,12.70
2023-02-08T12:45:59.112Z,14.30
2023-02-08T12:48:35.581Z,13.10
2023-02-08T12:51:28.740Z,13.00
2023-02-08T12:54:30.902Z,15.60
2023-02-08T12:57:02.440Z,18.10
2023-02-08T12:59:56.544Z,18.80
2023-02-08T13:02:57.473Z,17.10
2023-02-08T13:05:28.745Z,17.50
2023-02-08T13:08:32.809Z,16.80
2023-02-08T13:11:18.857Z,17.30
2023-02-08T13:14:13.022Z,16.80
2023-02-08T13:16:44.172Z,16.10
2023-02-08T13:19:24.859Z,17.10
2023-02-08T13:21:53.639Z,18.60
2023-02-08T13:24:38.761Z,16.40
2023-02-08T13:27:08.250Z,14.90
2023-02-08T13:29:36.396Z,14.80
2023-02-08T13:32:29.798Z,15.40
2023-02-08T13:35:02.898Z,15.50
2023-02-08T13:37:32.426Z,16.50
2023-02-08T13:40:12.876Z,16.30
2023-02-08T13:42:43.169Z,17.10
2023-02-08T13:45:25.712Z,19.10
2023-02-08T13:48:02.471Z,17.70
2023-02-08T13:50:44.848Z,16.70
2023-02-08T13:53:14.880Z,20.60
2023-02-08T13:55:43.058Z,17.10
2023-02-08T13:58:14.137Z,20.00
2023-02-08T14:00:54.990Z,18.10
2023-02-08T14:03:27.898Z,17.80
2023-02-08T14:06:22.575Z,17.60
2023-02-08T14:08:57.510Z,18.10
2023-02-08T14:11:57.334Z,18.10
2023-02-08T14:14:26.738Z,16.60
2023-02-08T14:17:04.167Z,18.10
2023-02-08T14:19:33.890Z,19.00
2023-02-08T14:22:07.089Z,18.40
2023-02-08T14:24:49.829Z,18.70
2023-02-08T14:27:40.964Z,16.40
2023-02-08T14:30:17.929Z,16.10
2023-02-08T14:33:04.939Z,16.30
2023-02-08T14:35:34.332Z,15.20
2023-02-08T14:38:32.852Z,15.80
2023-02-08T14:41:02.029Z,15.20
2023-02-08T14:43:41.177Z,17.90
2023-02-08T14:46:54.976Z,19.20
2023-02-08T14:49:23.254Z,19.90
2023-02-08T14:51:56.873Z,19.20
2023-02-08T14:54:33.032Z,19.90
2023-02-08T14:57:04.156Z,20.10
2023-02-08T14:59:32.706Z,21.80
2023-02-08T15:02:11.392Z,19.30
2023-02-08T15:04:44.514Z,19.70
2023-02-08T15:07:16.578Z,19.50
2023-02-08T15:09:45.537Z,19.10
2023-02-08T15:12:30.450Z,20.50
2023-02-08T15:15:01.448Z,22.20
2023-02-08T15:17:34.122Z,23.10
2023-02-08T15:20:06.070Z,22.00
2023-02-08T15:22:40.344Z,22.40
2023-02-08T15:25:35.575Z,22.00
2023-02-08T15:28:22.302Z,21.50
2023-02-08T15:31:09.598Z,23.70
2023-02-08T15:33:43.705Z,21.70
2023-02-08T15:36:21.203Z,21.50
2023-02-08T15:38:49.337Z,20.90
2023-02-08T15:41:31.772Z,21.80
2023-02-08T15:44:20.595Z,21.80
2023-02-08T15:46:50.022Z,20.90
2023-02-08T15:49:22.200Z,19.80
2023-02-08T15:51:51.083Z,21.40
2023-02-08T15:54:19.116Z,21.70
2023-02-08T15:57:17.781Z,21.30
2023-02-08T15:59:46.063Z,21.70
2023-02-08T16:02:21.101Z,21.50
2023-02-08T16:04:49.132Z,20.90
2023-02-08T16:07:35.154Z,20.30
2023-02-08T16:10:04.603Z,19.70
2023-02-08T16:12:33.226Z,19.00
2023-02-08T16:15:02.854Z,18.20
2023-02-08T16:17:36.076Z,18.20
2023-02-08T16:20:31.944Z,17.70
2023-02-08T16:23:03.884Z,16.80
2023-02-08T16:25:49.243Z,17.70
2023-02-08T16:28:35.409Z,18.20
2023-02-08T16:31:04.410Z,18.00
2023-02-08T16:33:33.038Z,20.50
2023-02-08T16:36:03.776Z,22.60
2023-02-08T16:38:36.612Z,20.30
2023-02-08T16:41:12.299Z,21.30
2023-02-08T16:43:44.582Z,19.80
2023-02-08T16:46:19.853Z,21.00
2023-02-08T16:48:51.527Z,22.30
2023-02-08T16:51:22.217Z,22.50
2023-02-08T16:53:51.942Z,21.50
2023-02-08T16:56:20.128Z,26.60
2023-02-08T16:58:48.355Z,23.60
2023-02-08T17:01:45.245Z,20.70
2023-02-08T17:04:19.124Z,20.50
2023-02-08T17:06:47.043Z,20.40
2023-02-08T17:09:15.065Z,27.10
2023-02-08T17:11:43.008Z,26.20
2023-02-08T17:14:11.205Z,27.00
2023-02-08T17:16:40.032Z,27.40
2023-02-08T17:19:10.866Z,29.20
2023-02-08T17:21:39.075Z,28.40
2023-02-08T17:24:06.915Z,34.70
2023-02-08T17:26:38.919Z,43.20
2023-02-08T17:29:07.827Z,49.30
2023-02-08T17:31:36.079Z,43.60
2023-02-08T17:34:06.915Z,42.80
2023-02-08T17:36:36.535Z,50.80
2023-02-08T17:39:05.745Z,49.10
2023-02-08T17:41:34.563Z,44.50
2023-02-08T17:44:02.692Z,41.10
2023-02-08T17:46:31.124Z,42.50
2023-02-08T17:49:01.704Z,39.20
2023-02-08T17:51:33.008Z,38.90
2023-02-08T17:54:05.066Z,40.40
2023-02-08T17:56:36.726Z,35.10
2023-02-08T17:59:05.642Z,38.20
2023-02-08T18:01:34.095Z,41.80
2023-02-08T18:04:02.656Z,38.80
2023-02-08T18:06:31.328Z,37.60
2023-02-08T18:08:59.183Z,45.10
2023-02-08T18:11:27.272Z,54.70
2023-02-08T18:13:55.812Z,56.70
2023-02-08T18:16:26.484Z,52.10
2023-02-08T18:18:56.497Z,47.70
2023-02-08T18:21:26.179Z,43.30
2023-02-08T18:23:55.592Z,40.00
2023-02-08T18:26:24.230Z,38.10
2023-02-08T18:28:52.930Z,39.40
2023-02-08T18:31:21.239Z,38.10
2023-02-08T18:33:49.962Z,42.40
2023-02-08T18:36:19.110Z,37.70
2023-02-08T18:38:47.749Z,37.70
2023-02-08T18:41:23.905Z,47.40
2023-02-08T18:43:52.229Z,55.20
2023-02-08T18:46:21.484Z,68.40
2023-02-08T18:48:50.831Z,60.60
2023-02-08T18:51:19.941Z,50.60
2023-02-08T18:53:50.920Z,37.90
2023-02-08T18:56:24.275Z,33.90
2023-02-08T18:58:53.861Z,36.30
2023-02-08T19:01:23.156Z,35.30
2023-02-08T19:03:52.195Z,35.40
2023-02-08T19:08:25.316Z,37.40
2023-02-08T19:10:53.432Z,36.10
2023-02-08T19:13:21.396Z,34.30
2023-02-08T19:15:49.928Z,36.40
2023-02-08T19:18:17.911Z,32.10
2023-02-08T19:20:45.809Z,32.70
2023-02-08T19:23:13.692Z,32.40
2023-02-08T19:25:42.306Z,32.10
2023-02-08T19:28:10.861Z,33.50
2023-02-08T19:30:40.188Z,36.00
2023-02-08T19:33:08.743Z,33.60
2023-02-08T19:35:38.568Z,31.80
2023-02-08T19:38:06.701Z,30.50
2023-02-08T19:40:35.555Z,31.90
2023-02-08T19:43:04.299Z,29.70
2023-02-08T19:45:32.539Z,28.70
2023-02-08T19:48:00.445Z,27.60
2023-02-08T19:50:28.733Z,26.60
2023-02-08T19:52:57.334Z,21.30
2023-02-08T19:55:26.002Z,19.70
2023-02-08T19:57:54.374Z,18.70
2023-02-08T20:00:24.282Z,18.10
2023-02-08T20:02:52.855Z,19.00
2023-02-08T20:05:20.864Z,19.90
2023-02-08T20:07:49.561Z,21.20
2023-02-08T20:10:18.277Z,21.40
2023-02-08T20:12:46.394Z,29.10
2023-02-08T20:15:16.092Z,24.80
2023-02-08T20:17:46.119Z,25.30
2023-02-08T20:20:14.709Z,23.50
2023-02-08T20:22:43.114Z,25.20
2023-02-08T20:25:10.996Z,26.50
2023-02-08T20:27:39.225Z,26.50
2023-02-08T20:30:07.596Z,25.20
2023-02-08T20:32:35.887Z,23.20
2023-02-08T20:35:04.619Z,22.10
2023-02-08T20:37:33.757Z,22.30
2023-02-08T20:40:01.897Z,20.60
2023-02-08T20:42:30.339Z,20.40
2023-02-08T20:44:58.479Z,21.40
2023-02-08T20:47:28.536Z,20.00
2023-02-08T20:49:59.615Z,21.50
2023-02-08T20:52:29.583Z,20.70
2023-02-08T20:54:57.686Z,21.70
2023-02-08T20:57:25.767Z,22.20
2023-02-08T20:59:53.979Z,22.50
2023-02-08T21:02:22.576Z,24.00
2023-02-08T21:04:50.500Z,24.80
2023-02-08T21:07:18.514Z,25.50
2023-02-08T21:09:47.081Z,25.30
2023-02-08T21:12:14.979Z,27.20
2023-02-08T21:14:44.704Z,26.80
2023-02-08T21:17:17.788Z,25.80
2023-02-08T21:19:47.816Z,24.80
2023-02-08T21:22:17.196Z,26.90
2023-02-08T21:24:45.146Z,28.00
2023-02-08T21:27:13.526Z,25.60
2023-02-08T21:29:42.198Z,18.80
2023-02-08T21:32:10.323Z,21.70
2023-02-08T21:34:38.280Z,23.20
2023-02-08T21:37:06.209Z,20.60
2023-02-08T21:39:34.694Z,19.30
2023-02-08T21:42:03.145Z,22.50
2023-02-08T21:44:35.249Z,21.60
2023-02-08T21:47:03.275Z,23.70
2023-02-08T21:49:50.426Z,24.50
2023-02-08T21:52:37.008Z,25.50
2023-02-08T21:55:06.019Z,24.60
2023-02-08T21:57:39.944Z,25.90
2023-02-08T22:00:10.390Z,25.50
2023-02-08T22:02:41.338Z,26.40
2023-02-08T22:05:28.529Z,26.90
2023-02-08T22:08:00.048Z,25.30
2023-02-08T22:10:30.372Z,27.80
2023-02-08T22:12:58.972Z,26.20
2023-02-08T22:15:29.231Z,27.20
2023-02-08T22:17:59.089Z,26.50
2023-02-08T22:20:28.101Z,27.30
2023-02-08T22:22:56.418Z,24.60
2023-02-08T22:25:24.818Z,23.80
2023-02-08T22:27:53.355Z,24.00
2023-02-08T22:30:23.837Z,24.60
2023-02-08T22:32:53.397Z,25.50
2023-02-08T22:35:22.755Z,23.80
2023-02-08T22:37:50.974Z,21.80
2023-02-08T22:40:19.251Z,24.90
2023-02-08T22:42:47.585Z,21.90
2023-02-08T22:45:15.480Z,21.50
2023-02-08T22:47:44.687Z,24.10
2023-02-08T22:50:14.375Z,23.70
2023-02-08T22:52:42.445Z,23.70
2023-02-08T22:55:12.381Z,26.20
2023-02-08T22:57:43.630Z,25.80
2023-02-08T23:00:14.394Z,26.50
2023-02-08T23:02:43.125Z,24.20
2023-02-08T23:05:11.319Z,24.80
2023-02-08T23:07:40.347Z,25.90
2023-02-08T23:10:09.643Z,25.50
2023-02-08T23:12:38.163Z,25.70
2023-02-08T23:15:06.749Z,26.00
2023-02-08T23:17:36.528Z,25.50
2023-02-08T23:20:04.625Z,26.50
2023-02-08T23:22:36.691Z,27.00
2023-02-08T23:25:05.152Z,25.50
2023-02-08T23:27:33.911Z,27.00
2023-02-08T23:30:02.082Z,26.10
2023-02-08T23:32:30.340Z,25.30
2023-02-08T23:34:58.410Z,23.20
2023-02-08T23:37:26.994Z,23.40
2023-02-08T23:39:55.278Z,22.60
2023-02-08T23:42:26.881Z,22.70
2023-02-08T23:44:56.132Z,22.80
2023-02-08T23:47:24.518Z,20.30
2023-02-08T23:49:52.700Z,22.10
2023-02-08T23:52:21.062Z,21.10
2023-02-08T23:54:49.560Z,19.80
2023-02-08T23:57:17.857Z,21.10
2023-02-08T23:59:45.979Z,19.70
